createdAt,value
2023-01-11T00:01:50.288Z,96787.91
2023-01-11T00:04:18.209Z,96784.72
2023-01-11T00:06:47.750Z,96783.94
2023-01-11T00:09:17.413Z,96791.56
2023-01-11T00:11:45.345Z,96794.88
2023-01-11T00:14:13.601Z,96784.84
2023-01-11T00:16:41.555Z,96787.34
2023-01-11T00:19:09.480Z,96772.22
2023-01-11T00:21:37.442Z,96777.34
2023-01-11T00:24:07.457Z,96780.78
2023-01-11T00:26:35.353Z,96768.34
2023-01-11T00:29:03.296Z,96775.84
2023-01-11T00:31:31.334Z,96774.16
2023-01-11T00:33:59.319Z,96769.22
2023-01-11T00:36:27.222Z,96775.00
2023-01-11T00:38:55.539Z,96768.13
2023-01-11T00:41:42.571Z,96771.72
2023-01-11T00:44:28.657Z,96779.34
2023-01-11T00:47:13.987Z,96782.63
2023-01-11T00:49:42.004Z,96781.84
2023-01-11T00:52:10.248Z,96768.56
2023-01-11T00:54:38.490Z,96763.53
2023-01-11T00:57:08.044Z,96769.25
2023-01-11T00:59:36.983Z,96767.38
2023-01-11T01:02:05.258Z,96770.13
2023-01-11T01:04:33.260Z,96765.97
2023-01-11T01:07:01.260Z,96774.44
2023-01-11T01:09:29.267Z,96769.34
2023-01-11T01:11:57.226Z,96767.63
2023-01-11T01:14:29.962Z,96760.34
2023-01-11T01:16:59.555Z,96756.28
2023-01-11T01:19:28.758Z,96751.19
2023-01-11T01:21:59.109Z,96746.94
2023-01-11T01:24:28.749Z,96756.22
2023-01-11T01:26:56.718Z,96752.09
2023-01-11T01:29:26.087Z,96759.63
2023-01-11T01:31:54.008Z,96750.50
2023-01-11T01:34:21.923Z,96747.19
2023-01-11T01:36:49.798Z,96745.34
2023-01-11T01:39:17.751Z,96741.09
2023-01-11T01:41:45.668Z,96740.19
2023-01-11T01:44:50.927Z,96733.44
2023-01-11T01:47:21.351Z,96728.53
2023-01-11T01:49:49.263Z,96719.47
2023-01-11T01:52:17.383Z,96717.03
2023-01-11T01:54:48.647Z,96720.47
2023-01-11T01:57:19.743Z,96717.22
2023-01-11T01:59:51.683Z,96717.25
2023-01-11T02:02:22.330Z,96716.94
2023-01-11T02:04:50.667Z,96721.13
2023-01-11T02:07:20.937Z,96718.66
2023-01-11T02:09:52.821Z,96717.13
2023-01-11T02:12:21.055Z,96717.25
2023-01-11T02:14:49.428Z,96713.97
2023-01-11T02:17:17.511Z,96720.56
2023-01-11T02:19:53.325Z,96715.53
2023-01-11T02:22:56.128Z,96723.84
2023-01-11T02:25:47.076Z,96718.16
2023-01-11T02:28:18.555Z,96718.09
2023-01-11T02:30:52.058Z,96713.91
2023-01-11T02:33:25.021Z,96713.19
2023-01-11T02:36:10.145Z,96709.81
2023-01-11T02:38:43.482Z,96703.81
2023-01-11T02:41:17.618Z,96708.81
2023-01-11T02:44:07.912Z,96705.50
2023-01-11T02:46:42.800Z,96708.00
2023-01-11T02:49:14.833Z,96701.47
2023-01-11T02:51:46.227Z,96697.25
2023-01-11T02:54:17.325Z,96689.56
2023-01-11T02:56:48.564Z,96683.78
2023-01-11T02:59:20.679Z,96689.63
2023-01-11T03:01:49.756Z,96692.16
2023-01-11T03:04:25.340Z,96693.91
2023-01-11T03:06:57.194Z,96690.75
2023-01-11T03:09:29.375Z,96687.47
2023-01-11T03:12:27.162Z,96690.75
2023-01-11T03:15:05.339Z,96684.94
2023-01-11T03:17:42.407Z,96687.47
2023-01-11T03:20:15.066Z,96682.53
2023-01-11T03:22:49.887Z,96667.56
2023-01-11T03:25:19.915Z,96679.22
2023-01-11T03:27:53.769Z,96670.75
2023-01-11T03:30:27.847Z,96674.84
2023-01-11T03:33:02.747Z,96671.50
2023-01-11T03:35:36.543Z,96656.66
2023-01-11T03:38:09.124Z,96665.84
2023-01-11T03:40:39.419Z,96660.81
2023-01-11T03:43:12.949Z,96653.28
2023-01-11T03:45:46.883Z,96655.59
2023-01-11T03:48:17.800Z,96649.13
2023-01-11T03:50:47.006Z,96650.03
2023-01-11T03:53:16.023Z,96648.44
2023-01-11T03:55:45.952Z,96649.31
2023-01-11T03:58:13.883Z,96650.06
2023-01-11T04:00:43.321Z,96636.69
2023-01-11T04:03:12.720Z,96637.66
2023-01-11T04:05:43.732Z,96639.34
2023-01-11T04:08:12.088Z,96640.88
2023-01-11T04:10:40.418Z,96639.19
2023-01-11T04:13:08.390Z,96632.56
2023-01-11T04:15:36.434Z,96630.06
2023-01-11T04:18:06.238Z,96624.91
2023-01-11T04:20:34.555Z,96624.94
2023-01-11T04:23:02.626Z,96624.13
2023-01-11T04:25:30.671Z,96625.81
2023-01-11T04:27:58.791Z,96622.53
2023-01-11T04:30:26.751Z,96629.22
2023-01-11T04:32:54.737Z,96630.06
2023-01-11T04:35:24.035Z,96635.91
2023-01-11T04:37:54.562Z,96643.47
2023-01-11T04:40:22.733Z,96631.88
2023-01-11T04:42:49.683Z,96632.72
2023-01-11T04:45:17.713Z,96628.63
2023-01-11T04:47:45.625Z,96629.47
2023-01-11T04:50:13.598Z,96626.88
2023-01-11T04:52:42.933Z,96628.53
2023-01-11T04:55:10.938Z,96637.69
2023-01-11T04:57:38.830Z,96629.41
2023-01-11T05:00:10.768Z,96626.13
2023-01-11T05:02:38.679Z,96630.31
2023-01-11T05:05:07.914Z,96625.28
2023-01-11T05:07:35.876Z,96627.81
2023-01-11T05:10:05.704Z,96626.94
2023-01-11T05:12:33.659Z,96624.41
2023-01-11T05:15:01.563Z,96620.31
2023-01-11T05:17:29.536Z,96611.06
2023-01-11T05:19:57.459Z,96619.41
2023-01-11T05:22:25.379Z,96616.09
2023-01-11T05:24:53.303Z,96612.69
2023-01-11T05:27:22.595Z,96609.25
2023-01-11T05:29:50.533Z,96610.09
2023-01-11T05:32:18.471Z,96611.53
2023-01-11T05:34:46.388Z,96609.88
2023-01-11T05:37:14.301Z,96597.88
2023-01-11T05:39:42.617Z,96595.25
2023-01-11T05:42:10.525Z,96594.50
2023-01-11T05:44:58.236Z,96586.84
2023-01-11T05:47:26.206Z,96576.03
2023-01-11T05:49:54.121Z,96582.69
2023-01-11T05:52:21.964Z,96583.53
2023-01-11T05:54:49.794Z,96590.97
2023-01-11T05:57:17.669Z,96577.63
2023-01-11T05:59:46.928Z,96576.59
2023-01-11T06:02:14.953Z,96583.28
2023-01-11T06:04:42.944Z,96575.75
2023-01-11T06:07:10.984Z,96574.22
2023-01-11T06:09:38.856Z,96569.19
2023-01-11T06:12:07.118Z,96574.19
2023-01-11T06:14:37.829Z,96573.34
2023-01-11T06:17:07.385Z,96569.91
2023-01-11T06:19:35.270Z,96570.69
2023-01-11T06:22:03.230Z,96568.34
2023-01-11T06:24:31.219Z,96572.53
2023-01-11T06:26:59.273Z,96564.91
2023-01-11T06:29:27.201Z,96565.81
2023-01-11T06:31:55.114Z,96578.09
2023-01-11T06:34:24.458Z,96576.50
2023-01-11T06:36:52.355Z,96580.44
2023-01-11T06:39:20.881Z,96584.53
2023-01-11T06:41:48.889Z,96581.22
2023-01-11T06:44:20.638Z,96583.50
2023-01-11T06:46:48.562Z,96585.94
2023-01-11T06:49:16.705Z,96576.91
2023-01-11T06:51:46.054Z,96578.31
2023-01-11T06:54:13.963Z,96581.66
2023-01-11T06:56:41.930Z,96578.41
2023-01-11T06:59:09.991Z,96580.44
2023-01-11T07:01:38.063Z,96587.16
2023-01-11T07:04:06.354Z,96590.50
2023-01-11T07:06:35.929Z,96587.88
2023-01-11T07:09:05.695Z,96593.69
2023-01-11T07:11:34.935Z,96579.34
2023-01-11T07:14:02.880Z,96584.41
2023-01-11T07:16:30.883Z,96587.44
2023-01-11T07:19:00.389Z,96581.59
2023-01-11T07:21:28.359Z,96588.09
2023-01-11T07:23:56.255Z,96582.59
2023-01-11T07:26:26.599Z,96584.75
2023-01-11T07:28:54.855Z,96586.38
2023-01-11T07:31:22.866Z,96580.41
2023-01-11T07:33:50.848Z,96577.03
2023-01-11T07:36:18.818Z,96581.09
2023-01-11T07:38:48.606Z,96574.66
2023-01-11T07:41:33.929Z,96565.66
2023-01-11T07:44:03.225Z,96558.66
2023-01-11T07:46:31.202Z,96565.50
2023-01-11T07:48:59.406Z,96559.75
2023-01-11T07:51:27.297Z,96567.06
2023-01-11T07:53:55.226Z,96570.13
2023-01-11T07:56:23.696Z,96564.50
2023-01-11T07:58:51.686Z,96571.97
2023-01-11T08:01:20.964Z,96556.13
2023-01-11T08:03:49.003Z,96556.19
2023-01-11T08:06:17.046Z,96552.56
2023-01-11T08:08:45.338Z,96537.63
2023-01-11T08:11:31.126Z,96530.34
2023-01-11T08:14:16.510Z,96529.16
2023-01-11T08:16:45.826Z,96524.00
2023-01-11T08:19:13.757Z,96522.50
2023-01-11T08:21:44.463Z,96523.47
2023-01-11T08:24:12.526Z,96512.59
2023-01-11T08:26:40.487Z,96504.06
2023-01-11T08:29:08.674Z,96498.72
2023-01-11T08:31:36.601Z,96500.56
2023-01-11T08:34:05.883Z,96493.56
2023-01-11T08:36:33.794Z,96489.00
2023-01-11T08:39:01.742Z,96495.09
2023-01-11T08:41:29.754Z,96491.63
2023-01-11T08:43:58.319Z,96486.00
2023-01-11T08:46:26.591Z,96492.03
2023-01-11T08:48:54.560Z,96493.63
2023-01-11T08:51:23.911Z,96496.25
2023-01-11T08:53:52.946Z,96494.72
2023-01-11T08:56:20.901Z,96499.16
2023-01-11T08:58:48.771Z,96513.22
2023-01-11T09:01:16.711Z,96510.97
2023-01-11T09:03:44.670Z,96515.72
2023-01-11T09:06:12.617Z,96519.34
2023-01-11T09:08:42.702Z,96518.38
2023-01-11T09:11:31.235Z,96515.84
2023-01-11T09:13:59.101Z,96516.56
2023-01-11T09:16:27.022Z,96513.28
2023-01-11T09:18:55.652Z,96513.56
2023-01-11T09:21:23.907Z,96506.66
2023-01-11T09:23:53.183Z,96499.81
2023-01-11T09:26:21.064Z,96505.28
2023-01-11T09:28:49.036Z,96500.47
2023-01-11T09:31:17.029Z,96499.34
2023-01-11T09:33:44.953Z,96503.53
2023-01-11T09:36:14.878Z,96497.19
2023-01-11T09:38:43.929Z,96496.72
2023-01-11T09:41:24.300Z,96490.25
2023-01-11T09:43:57.668Z,96487.47
2023-01-11T09:46:25.974Z,96481.56
2023-01-11T09:48:56.964Z,96479.09
2023-01-11T09:51:29.524Z,96472.25
2023-01-11T09:53:59.807Z,96475.00
2023-01-11T09:56:36.666Z,96470.44
2023-01-11T09:59:11.264Z,96473.13
2023-01-11T10:01:41.254Z,96474.81
2023-01-11T10:04:59.195Z,96472.41
2023-01-11T10:07:43.287Z,96463.91
2023-01-11T10:18:39.798Z,96463.94
2023-01-11T10:19:34.810Z,96456.72
2023-01-11T10:22:12.023Z,96467.91
2023-01-11T10:24:43.095Z,96465.13
2023-01-11T10:27:21.651Z,96454.25
2023-01-11T10:30:07.057Z,96468.84
2023-01-11T10:32:54.151Z,96463.16
2023-01-11T10:35:46.888Z,96470.09
2023-01-11T10:38:40.888Z,96473.75
2023-01-11T10:41:20.141Z,96473.59
2023-01-11T10:43:53.227Z,96468.44
2023-01-11T10:46:23.702Z,96461.09
2023-01-11T10:48:59.047Z,96462.13
2023-01-11T10:51:32.397Z,96456.06
2023-01-11T10:57:03.166Z,96455.44
2023-01-11T11:00:15.673Z,96461.31
2023-01-11T11:03:19.230Z,96451.75
2023-01-11T11:05:54.020Z,96454.84
2023-01-11T11:08:27.642Z,96445.13
2023-01-11T11:11:01.711Z,96440.94
2023-01-11T11:13:43.515Z,96439.03
2023-01-11T11:16:34.408Z,96428.66
2023-01-11T11:19:02.642Z,96428.38
2023-01-11T11:21:35.585Z,96424.16
2023-01-11T11:24:06.912Z,96414.84
2023-01-11T11:26:38.387Z,96409.72
2023-01-11T11:29:08.014Z,96396.09
2023-01-11T11:31:37.856Z,96394.78
2023-01-11T11:34:07.492Z,96383.75
2023-01-11T11:36:44.373Z,96385.63
2023-01-11T11:39:20.649Z,96386.13
2023-01-11T11:41:50.037Z,96380.47
2023-01-11T11:44:20.531Z,96366.19
2023-01-11T11:46:58.830Z,96364.34
2023-01-11T11:49:26.776Z,96364.16
2023-01-11T11:51:56.218Z,96361.22
2023-01-11T11:54:27.861Z,96357.84
2023-01-11T11:56:57.319Z,96343.25
2023-01-11T11:59:28.730Z,96347.56
2023-01-11T12:02:00.180Z,96347.16
2023-01-11T12:04:47.097Z,96340.81
2023-01-11T12:07:18.147Z,96328.94
2023-01-11T12:09:48.830Z,96334.19
2023-01-11T12:12:20.973Z,96337.66
2023-01-11T12:15:19.499Z,96340.66
2023-01-11T12:17:47.543Z,96331.38
2023-01-11T12:20:30.118Z,96324.94
2023-01-11T12:23:16.918Z,96323.75
2023-01-11T12:26:08.230Z,96320.41
2023-01-11T12:28:57.643Z,96315.41
2023-01-11T12:31:31.323Z,96311.13
2023-01-11T12:34:04.522Z,96313.19
2023-01-11T12:36:39.016Z,96311.00
2023-01-11T12:39:16.257Z,96312.44
2023-01-11T12:41:54.114Z,96301.00
2023-01-11T12:44:34.011Z,96303.91
2023-01-11T12:47:28.860Z,96296.03
2023-01-11T12:50:00.234Z,96287.31
2023-01-11T12:52:45.611Z,96290.13
2023-01-11T12:55:25.347Z,96294.19
2023-01-11T12:58:01.593Z,96292.19
2023-01-11T13:01:06.249Z,96278.81
2023-01-11T13:03:52.918Z,96276.44
2023-01-11T13:06:23.961Z,96280.41
2023-01-11T13:09:00.182Z,96264.50
2023-01-11T13:11:38.964Z,96258.28
2023-01-11T13:14:49.212Z,96261.28
2023-01-11T13:17:23.578Z,96264.97
2023-01-11T13:19:57.496Z,96262.56
2023-01-11T13:22:30.194Z,96256.78
2023-01-11T13:24:59.693Z,96263.72
2023-01-11T13:27:31.812Z,96263.50
2023-01-11T13:30:01.940Z,96259.22
2023-01-11T13:32:35.755Z,96254.69
2023-01-11T13:35:07.697Z,96255.81
2023-01-11T13:37:39.219Z,96254.97
2023-01-11T13:40:16.947Z,96262.16
2023-01-11T13:42:48.822Z,96259.59
2023-01-11T13:45:19.547Z,96271.09
2023-01-11T13:47:50.187Z,96267.94
2023-01-11T13:50:22.624Z,96271.47
2023-01-11T13:53:00.760Z,96265.78
2023-01-11T13:55:36.220Z,96263.34
2023-01-11T13:58:10.737Z,96266.69
2023-01-11T14:00:40.619Z,96272.13
2023-01-11T14:03:19.359Z,96260.31
2023-01-11T14:05:56.961Z,96268.03
2023-01-11T14:08:55.834Z,96255.41
2023-01-11T14:11:28.350Z,96261.31
2023-01-11T14:14:26.255Z,96264.66
2023-01-11T14:17:04.215Z,96255.41
2023-01-11T14:19:35.851Z,96255.25
2023-01-11T14:22:11.107Z,96251.31
2023-01-11T14:24:42.861Z,96259.69
2023-01-11T14:27:22.968Z,96250.94
2023-01-11T14:30:13.772Z,96258.53
2023-01-11T14:32:57.279Z,96246.00
2023-01-11T14:35:50.239Z,96243.34
2023-01-11T14:38:45.903Z,96249.28
2023-01-11T14:41:44.335Z,96243.81
2023-01-11T14:44:31.100Z,96246.16
2023-01-11T14:47:22.173Z,96247.00
2023-01-11T14:50:05.405Z,96251.47
2023-01-11T14:52:39.982Z,96248.44
2023-01-11T14:55:16.788Z,96252.56
2023-01-11T14:57:45.581Z,96249.50
2023-01-11T15:00:49.408Z,96248.59
2023-01-11T15:03:34.597Z,96245.66
2023-01-11T15:06:06.703Z,96247.75
2023-01-11T15:08:43.655Z,96247.06
2023-01-11T15:11:24.177Z,96248.56
2023-01-11T15:13:56.323Z,96247.06
2023-01-11T15:16:43.009Z,96249.00
2023-01-11T15:19:23.909Z,96244.25
2023-01-11T15:21:53.318Z,96249.16
2023-01-11T15:24:23.984Z,96246.19
2023-01-11T15:26:52.063Z,96245.44
2023-01-11T15:29:22.646Z,96244.53
2023-01-11T15:32:05.469Z,96239.19
2023-01-11T15:34:44.817Z,96242.09
2023-01-11T15:37:51.298Z,96246.09
2023-01-11T15:40:21.341Z,96243.53
2023-01-11T15:43:25.390Z,96241.97
2023-01-11T15:46:44.062Z,96252.09
2023-01-11T15:49:35.527Z,96252.75
2023-01-11T15:52:19.964Z,96254.97
2023-01-11T15:55:13.794Z,96260.09
2023-01-11T15:57:54.139Z,96259.44
2023-01-11T16:00:47.453Z,96243.34
2023-01-11T16:03:42.468Z,96247.09
2023-01-11T16:06:18.418Z,96255.81
2023-01-11T16:08:54.470Z,96249.72
2023-01-11T16:11:28.009Z,96259.34
2023-01-11T16:14:08.096Z,96268.72
2023-01-11T16:16:40.263Z,96265.81
2023-01-11T16:19:13.792Z,96254.50
2023-01-11T16:21:42.627Z,96260.19
2023-01-11T16:24:16.924Z,96262.28
2023-01-11T16:26:45.279Z,96251.94
2023-01-11T16:29:26.466Z,96265.91
2023-01-11T16:31:59.693Z,96257.00
2023-01-11T16:34:29.161Z,96256.75
2023-01-11T16:36:57.717Z,96250.28
2023-01-11T16:39:29.367Z,96257.69
2023-01-11T16:42:00.516Z,96255.28
2023-01-11T16:44:35.140Z,96254.06
2023-01-11T16:47:11.362Z,96254.28
2023-01-11T16:49:39.812Z,96246.03
2023-01-11T16:52:39.844Z,96253.38
2023-01-11T16:55:21.371Z,96264.25
2023-01-11T16:57:53.689Z,96266.03
2023-01-11T17:00:32.429Z,96260.88
2023-01-11T17:03:23.745Z,96260.38
2023-01-11T17:06:03.038Z,96262.88
2023-01-11T17:08:34.800Z,96255.28
2023-01-11T17:11:07.076Z,96264.97
2023-01-11T17:13:55.268Z,96255.19
2023-01-11T17:16:25.113Z,96261.69
2023-01-11T17:18:54.465Z,96263.03
2023-01-11T17:21:25.263Z,96260.75
2023-01-11T17:23:54.522Z,96270.94
2023-01-11T17:26:25.929Z,96272.19
2023-01-11T17:28:57.387Z,96283.69
2023-01-11T17:31:27.127Z,96272.63
2023-01-11T17:34:03.594Z,96272.66
2023-01-11T17:36:32.851Z,96280.56
2023-01-11T17:39:00.935Z,96278.91
2023-01-11T17:41:48.243Z,96285.03
2023-01-11T17:44:38.523Z,96289.50
2023-01-11T17:47:08.797Z,96290.97
2023-01-11T17:49:38.070Z,96290.81
2023-01-11T17:52:17.293Z,96301.75
2023-01-11T17:54:45.283Z,96285.63
2023-01-11T17:57:14.974Z,96281.25
2023-01-11T17:59:42.931Z,96289.72
2023-01-11T18:02:14.253Z,96286.06
2023-01-11T18:04:42.595Z,96285.69
2023-01-11T18:07:15.941Z,96301.63
2023-01-11T18:09:46.621Z,96295.53
2023-01-11T18:12:18.326Z,96292.34
2023-01-11T18:14:51.661Z,96299.50
2023-01-11T18:17:35.997Z,96294.84
2023-01-11T18:20:07.922Z,96303.16
2023-01-11T18:22:40.472Z,96303.91
2023-01-11T18:25:18.620Z,96305.94
2023-01-11T18:27:49.567Z,96297.88
2023-01-11T18:30:37.052Z,96308.22
2023-01-11T18:33:11.681Z,96310.16
2023-01-11T18:35:43.829Z,96304.94
2023-01-11T18:38:15.211Z,96307.47
2023-01-11T18:40:43.174Z,96304.94
2023-01-11T18:43:13.986Z,96306.03
2023-01-11T18:45:42.326Z,96304.16
2023-01-11T18:48:12.044Z,96312.41
2023-01-11T18:50:40.804Z,96308.63
2023-01-11T18:53:11.803Z,96315.88
2023-01-11T18:55:39.719Z,96301.41
2023-01-11T18:58:07.765Z,96312.09
2023-01-11T19:00:37.077Z,96322.72
2023-01-11T19:03:06.118Z,96322.44
2023-01-11T19:05:34.054Z,96325.53
2023-01-11T19:08:01.972Z,96329.03
2023-01-11T19:10:30.043Z,96325.69
2023-01-11T19:12:58.599Z,96329.97
2023-01-11T19:15:26.552Z,96325.91
2023-01-11T19:17:55.874Z,96338.16
2023-01-11T19:20:23.800Z,96329.53
2023-01-11T19:22:51.824Z,96333.41
2023-01-11T19:25:20.599Z,96337.94
2023-01-11T19:27:49.706Z,96341.84
2023-01-11T19:30:18.679Z,96339.41
2023-01-11T19:32:51.742Z,96345.38
2023-01-11T19:35:22.214Z,96350.41
2023-01-11T19:37:50.256Z,96351.31
2023-01-11T19:40:19.734Z,96357.28
2023-01-11T19:42:47.907Z,96362.22
2023-01-11T19:45:15.913Z,96365.91
2023-01-11T19:47:43.918Z,96370.34
2023-01-11T19:50:12.175Z,96373.06
2023-01-11T19:52:41.429Z,96366.72
2023-01-11T19:55:09.913Z,96375.44
2023-01-11T19:57:37.900Z,96375.44
2023-01-11T20:00:06.487Z,96372.41
2023-01-11T20:02:34.486Z,96377.50
2023-01-11T20:05:02.481Z,96379.78
2023-01-11T20:07:30.436Z,96383.47
2023-01-11T20:09:59.711Z,96375.91
2023-01-11T20:12:27.628Z,96372.34
2023-01-11T20:15:01.033Z,96379.13
2023-01-11T20:17:29.013Z,96369.13
2023-01-11T20:19:57.041Z,96374.66
2023-01-11T20:22:25.575Z,96386.00
2023-01-11T20:24:53.455Z,96384.34
2023-01-11T20:27:22.820Z,96389.38
2023-01-11T20:29:50.771Z,96385.13
2023-01-11T20:32:39.828Z,96397.63
2023-01-11T20:35:07.597Z,96397.34
2023-01-11T20:37:35.486Z,96408.53
2023-01-11T20:40:03.414Z,96401.81
2023-01-11T20:42:33.166Z,96402.47
2023-01-11T20:45:01.078Z,96406.16
2023-01-11T20:47:28.994Z,96409.94
2023-01-11T20:49:56.925Z,96416.38
2023-01-11T20:52:27.230Z,96414.13
2023-01-11T20:54:55.139Z,96403.09
2023-01-11T20:57:23.061Z,96406.22
2023-01-11T20:59:53.415Z,96409.19
2023-01-11T21:02:21.332Z,96416.41
2023-01-11T21:04:49.350Z,96422.31
2023-01-11T21:07:17.326Z,96422.28
2023-01-11T21:09:45.234Z,96434.28
2023-01-11T21:12:13.146Z,96434.44
2023-01-11T21:14:41.100Z,96445.03
2023-01-11T21:17:10.417Z,96437.13
2023-01-11T21:19:38.309Z,96444.97
2023-01-11T21:22:06.423Z,96439.66
2023-01-11T21:24:34.488Z,96438.97
2023-01-11T21:27:02.444Z,96443.91
2023-01-11T21:29:30.386Z,96443.22
2023-01-11T21:31:58.373Z,96441.91
2023-01-11T21:34:27.619Z,96441.91
2023-01-11T21:36:55.554Z,96454.44
2023-01-11T21:39:23.449Z,96452.78
2023-01-11T21:41:58.687Z,96458.31
2023-01-11T21:44:34.424Z,96459.28
2023-01-11T21:47:03.248Z,96464.09
2023-01-11T21:49:32.683Z,96465.44
2023-01-11T21:52:00.779Z,96450.72
2023-01-11T21:54:28.751Z,96462.66
2023-01-11T21:56:56.672Z,96459.75
2023-01-11T21:59:24.658Z,96456.91
2023-01-11T22:01:52.575Z,96459.53
2023-01-11T22:04:21.593Z,96460.50
2023-01-11T22:06:55.153Z,96453.94
2023-01-11T22:09:25.265Z,96465.78
2023-01-11T22:11:53.157Z,96466.91
2023-01-11T22:14:21.146Z,96467.66
2023-01-11T22:16:49.089Z,96470.97
2023-01-11T22:19:17.174Z,96472.44
2023-01-11T22:21:45.084Z,96472.22
2023-01-11T22:24:14.642Z,96471.31
2023-01-11T22:26:42.657Z,96477.22
2023-01-11T22:29:15.198Z,96488.75
2023-01-11T22:31:45.869Z,96495.59
2023-01-11T22:34:14.786Z,96493.53
2023-01-11T22:36:43.251Z,96483.88
2023-01-11T22:39:11.275Z,96487.47
2023-01-11T22:41:41.160Z,96487.63
2023-01-11T22:44:10.283Z,96491.34
2023-01-11T22:46:40.661Z,96490.84
2023-01-11T22:49:08.818Z,96492.03
2023-01-11T22:51:36.925Z,96486.66
2023-01-11T22:54:05.299Z,96473.66
2023-01-11T22:56:33.644Z,96466.31
2023-01-11T22:59:03.003Z,96473.66
2023-01-11T23:01:32.668Z,96475.81
2023-01-11T23:04:01.007Z,96464.09
2023-01-11T23:06:30.718Z,96464.97
2023-01-11T23:08:59.176Z,96448.59
2023-01-11T23:11:48.032Z,96457.59
2023-01-11T23:14:18.886Z,96459.88
2023-01-11T23:16:48.467Z,96456.16
2023-01-11T23:19:18.688Z,96445.63
2023-01-11T23:21:47.693Z,96455.19
2023-01-11T23:24:17.165Z,96453.09
2023-01-11T23:26:45.636Z,96456.56
2023-01-11T23:29:13.696Z,96459.16
2023-01-11T23:31:43.705Z,96453.34
2023-01-11T23:34:12.515Z,96453.69
2023-01-11T23:36:41.750Z,96442.88
2023-01-11T23:39:11.893Z,96456.53
2023-01-11T23:41:57.094Z,96449.22
2023-01-11T23:44:25.013Z,96455.78
2023-01-11T23:47:11.754Z,96459.75
2023-01-11T23:49:39.725Z,96469.00
2023-01-11T23:52:07.814Z,96476.34
2023-01-11T23:54:36.003Z,96474.91
2023-01-11T23:57:04.608Z,96470.56
2023-01-11T23:59:32.947Z,96471.63
